createdAt,value
2023-05-21T00:00:29.197Z,99.99
2023-05-21T00:01:29.171Z,99.99
2023-05-21T00:02:29.283Z,99.99
2023-05-21T00:03:29.226Z,99.99
2023-05-21T00:04:29.104Z,99.99
2023-05-21T00:05:29.075Z,99.99
2023-05-21T00:06:29.166Z,99.99
2023-05-21T00:07:29.017Z,99.99
2023-05-21T00:08:28.995Z,99.99
2023-05-21T00:09:28.963Z,99.99
2023-05-21T00:10:28.942Z,99.99
2023-05-21T00:11:28.908Z,99.99
2023-05-21T00:12:28.886Z,99.99
2023-05-21T00:13:28.865Z,99.99
2023-05-21T00:14:28.834Z,99.99
2023-05-21T00:15:28.844Z,99.99
2023-05-21T00:16:28.863Z,99.99
2023-05-21T00:17:28.827Z,99.99
2023-05-21T00:18:28.731Z,99.99
2023-05-21T00:19:28.851Z,99.99
2023-05-21T00:20:28.679Z,99.99
2023-05-21T00:21:28.651Z,99.99
2023-05-21T00:22:28.627Z,99.99
2023-05-21T00:23:28.599Z,99.99
2023-05-21T00:24:28.572Z,99.99
2023-05-21T00:25:28.552Z,99.99
2023-05-21T00:26:28.520Z,99.99
2023-05-21T00:27:28.496Z,99.99
2023-05-21T00:28:28.480Z,99.99
2023-05-21T00:29:28.451Z,99.99
2023-05-21T00:30:28.418Z,99.99
2023-05-21T00:31:28.465Z,99.99
2023-05-21T00:32:28.368Z,99.99
2023-05-21T00:33:28.336Z,99.99
2023-05-21T00:34:28.311Z,99.99
2023-05-21T00:35:28.280Z,99.99
2023-05-21T00:36:28.262Z,99.99
2023-05-21T00:37:28.232Z,99.99
2023-05-21T00:38:28.206Z,99.99
2023-05-21T00:39:28.178Z,99.99
2023-05-21T00:40:28.152Z,99.99
2023-05-21T00:41:28.128Z,99.99
2023-05-21T00:42:28.101Z,99.99
2023-05-21T00:43:28.088Z,99.99
2023-05-21T00:44:28.051Z,99.99
2023-05-21T00:45:28.025Z,99.99
2023-05-21T00:46:28.115Z,99.99
2023-05-21T00:47:28.039Z,99.99
2023-05-21T00:48:27.949Z,99.99
2023-05-21T00:49:27.920Z,99.99
2023-05-21T00:50:27.893Z,99.99
2023-05-21T00:51:27.867Z,99.99
2023-05-21T00:52:27.850Z,99.99
2023-05-21T00:53:27.818Z,99.99
2023-05-21T00:54:27.791Z,99.99
2023-05-21T00:55:27.764Z,99.99
2023-05-21T00:56:27.742Z,99.99
2023-05-21T00:57:27.718Z,99.99
2023-05-21T00:58:27.686Z,99.99
2023-05-21T00:59:27.661Z,99.99
2023-05-21T01:00:27.636Z,99.99
2023-05-21T01:01:27.658Z,99.99
2023-05-21T01:02:27.683Z,99.99
2023-05-21T01:03:27.714Z,99.99
2023-05-21T01:04:27.530Z,99.99
2023-05-21T01:05:27.503Z,99.99
2023-05-21T01:06:27.480Z,99.99
2023-05-21T01:07:27.450Z,99.99
2023-05-21T01:08:27.422Z,99.99
2023-05-21T01:09:27.415Z,99.99
2023-05-21T01:10:27.374Z,99.99
2023-05-21T01:11:27.350Z,99.99
2023-05-21T01:12:27.322Z,99.99
2023-05-21T01:13:27.310Z,99.99
2023-05-21T01:14:27.272Z,99.99
2023-05-21T01:15:27.241Z,99.99
2023-05-21T01:16:27.224Z,99.99
2023-05-21T01:17:27.203Z,99.99
2023-05-21T01:18:27.195Z,99.99
2023-05-21T01:19:27.216Z,99.99
2023-05-21T01:20:27.123Z,99.99
2023-05-21T01:21:27.086Z,99.99
2023-05-21T01:22:27.062Z,99.99
2023-05-21T01:23:27.037Z,99.99
2023-05-21T01:24:27.009Z,99.99
2023-05-21T01:25:26.989Z,99.99
2023-05-21T01:26:26.959Z,99.99
2023-05-21T01:27:26.928Z,99.99
2023-05-21T01:28:26.916Z,99.99
2023-05-21T01:29:26.879Z,99.99
2023-05-21T01:30:26.852Z,99.99
2023-05-21T01:31:26.838Z,99.99
2023-05-21T01:32:26.854Z,99.99
2023-05-21T01:33:26.877Z,99.99
2023-05-21T01:34:26.770Z,99.99
2023-05-21T01:35:26.747Z,99.99
2023-05-21T01:36:26.733Z,99.99
2023-05-21T01:37:26.672Z,99.99
2023-05-21T01:38:26.664Z,99.99
2023-05-21T01:39:26.619Z,99.99
2023-05-21T01:40:26.595Z,99.99
2023-05-21T01:41:26.569Z,99.99
2023-05-21T01:42:26.541Z,99.99
2023-05-21T01:43:26.517Z,99.99
2023-05-21T01:44:26.498Z,99.99
2023-05-21T01:45:26.462Z,99.99
2023-05-21T01:46:26.494Z,99.99
2023-05-21T01:47:26.435Z,99.99
2023-05-21T01:48:26.411Z,99.99
2023-05-21T01:49:26.363Z,99.99
2023-05-21T01:50:26.337Z,99.99
2023-05-21T01:51:26.329Z,99.99
2023-05-21T01:52:26.309Z,99.99
2023-05-21T01:53:26.258Z,99.99
2023-05-21T01:54:26.242Z,99.99
2023-05-21T01:55:26.227Z,99.99
2023-05-21T01:56:26.186Z,99.99
2023-05-21T01:57:26.186Z,99.99
2023-05-21T01:58:26.129Z,99.99
2023-05-21T01:59:26.106Z,99.99
2023-05-21T02:00:26.081Z,99.99
2023-05-21T02:01:26.079Z,99.99
2023-05-21T02:02:26.109Z,99.99
2023-05-21T02:03:26.106Z,99.99
2023-05-21T02:04:25.982Z,99.99
2023-05-21T02:05:25.950Z,99.99
2023-05-21T02:06:25.930Z,99.99
2023-05-21T02:07:25.920Z,99.99
2023-05-21T02:08:25.875Z,99.99
2023-05-21T02:09:25.857Z,99.99
2023-05-21T02:10:25.822Z,99.99
2023-05-21T02:11:25.795Z,99.99
2023-05-21T02:12:25.777Z,99.99
2023-05-21T02:13:26.586Z,99.99
2023-05-21T02:14:25.721Z,99.99
2023-05-21T02:15:25.703Z,99.99
2023-05-21T02:16:25.691Z,99.99
2023-05-21T02:17:25.704Z,99.99
2023-05-21T02:18:25.626Z,99.99
2023-05-21T02:19:25.619Z,99.99
2023-05-21T02:20:25.577Z,99.99
2023-05-21T02:21:25.543Z,99.99
2023-05-21T02:22:25.516Z,99.99
2023-05-21T02:23:25.514Z,99.99
2023-05-21T02:24:25.461Z,99.99
2023-05-21T02:25:25.440Z,99.99
2023-05-21T02:26:25.417Z,99.99
2023-05-21T02:27:25.396Z,99.99
2023-05-21T02:28:25.361Z,99.99
2023-05-21T02:29:25.337Z,99.99
2023-05-21T02:30:25.309Z,99.99
2023-05-21T02:31:25.283Z,99.99
2023-05-21T02:32:25.270Z,99.99
2023-05-21T02:33:25.233Z,99.99
2023-05-21T02:34:25.234Z,99.99
2023-05-21T02:35:25.192Z,99.99
2023-05-21T02:36:25.158Z,99.99
2023-05-21T02:37:25.125Z,99.99
2023-05-21T02:38:25.102Z,99.99
2023-05-21T02:39:25.097Z,99.99
2023-05-21T02:40:25.052Z,99.99
2023-05-21T02:41:25.024Z,99.99
2023-05-21T02:42:25.000Z,99.99
2023-05-21T02:43:24.973Z,99.99
2023-05-21T02:44:24.948Z,99.99
2023-05-21T02:45:24.938Z,99.99
2023-05-21T02:46:24.984Z,99.99
2023-05-21T02:47:24.918Z,99.99
2023-05-21T02:48:24.841Z,99.99
2023-05-21T02:49:24.816Z,99.99
2023-05-21T02:50:24.786Z,99.99
2023-05-21T02:51:24.764Z,99.99
2023-05-21T02:52:24.751Z,99.99
2023-05-21T02:53:24.713Z,99.99
2023-05-21T02:54:24.683Z,99.99
2023-05-21T02:55:24.679Z,99.99
2023-05-21T02:56:24.632Z,99.99
2023-05-21T02:57:24.606Z,99.99
2023-05-21T02:58:24.589Z,99.99
2023-05-21T02:59:24.555Z,99.99
2023-05-21T03:00:24.544Z,99.99
2023-05-21T03:01:24.552Z,99.99
2023-05-21T03:02:24.592Z,99.99
2023-05-21T03:03:24.566Z,99.99
2023-05-21T03:04:24.424Z,99.99
2023-05-21T03:05:24.430Z,99.99
2023-05-21T03:06:24.372Z,99.99
2023-05-21T03:07:24.366Z,99.99
2023-05-21T03:08:24.316Z,99.99
2023-05-21T03:09:24.290Z,99.99
2023-05-21T03:10:24.270Z,99.99
2023-05-21T03:11:24.267Z,99.99
2023-05-21T03:12:24.226Z,99.99
2023-05-21T03:13:24.244Z,99.99
2023-05-21T03:14:24.161Z,99.99
2023-05-21T03:15:24.405Z,99.99
2023-05-21T03:16:24.125Z,99.99
2023-05-21T03:17:24.094Z,99.99
2023-05-21T03:18:24.071Z,99.99
2023-05-21T03:19:24.055Z,99.99
2023-05-21T03:20:24.010Z,99.99
2023-05-21T03:21:23.976Z,99.99
2023-05-21T03:22:23.959Z,99.99
2023-05-21T03:23:23.928Z,99.99
2023-05-21T03:24:23.910Z,99.99
2023-05-21T03:25:23.874Z,99.99
2023-05-21T03:26:23.849Z,99.99
2023-05-21T03:27:23.866Z,99.99
2023-05-21T03:28:23.796Z,99.99
2023-05-21T03:29:23.774Z,99.99
2023-05-21T03:30:23.758Z,99.99
2023-05-21T03:31:23.731Z,99.99
2023-05-21T03:32:23.847Z,99.99
2023-05-21T03:33:23.670Z,99.99
2023-05-21T03:34:23.636Z,99.99
2023-05-21T03:35:23.613Z,99.99
2023-05-21T03:36:23.589Z,99.99
2023-05-21T03:37:23.570Z,99.99
2023-05-21T03:38:23.539Z,99.99
2023-05-21T03:39:23.506Z,99.99
2023-05-21T03:40:23.483Z,99.99
2023-05-21T03:41:23.456Z,99.99
2023-05-21T03:42:23.430Z,99.99
2023-05-21T03:43:23.436Z,99.99
2023-05-21T03:44:23.378Z,99.99
2023-05-21T03:45:23.368Z,99.99
2023-05-21T03:46:23.354Z,99.99
2023-05-21T03:47:23.315Z,99.99
2023-05-21T03:48:23.274Z,99.99
2023-05-21T03:49:23.245Z,99.99
2023-05-21T03:50:23.224Z,99.99
2023-05-21T03:51:23.193Z,99.99
2023-05-21T03:52:23.175Z,99.99
2023-05-21T03:53:23.137Z,99.99
2023-05-21T03:54:23.156Z,99.99
2023-05-21T03:55:23.092Z,99.99
2023-05-21T03:56:23.069Z,99.99
2023-05-21T03:57:23.035Z,99.99
2023-05-21T03:58:23.030Z,99.99
2023-05-21T03:59:23.107Z,99.99
2023-05-21T04:00:22.956Z,99.99
2023-05-21T04:01:22.927Z,99.99
2023-05-21T04:02:22.983Z,99.99
2023-05-21T04:03:22.990Z,99.99
2023-05-21T04:04:22.985Z,99.99
2023-05-21T04:05:22.826Z,99.99
2023-05-21T04:06:22.852Z,99.99
2023-05-21T04:07:22.768Z,99.99
2023-05-21T04:08:22.746Z,99.99
2023-05-21T04:09:22.732Z,99.99
2023-05-21T04:10:22.696Z,99.99
2023-05-21T04:11:22.698Z,99.99
2023-05-21T04:12:22.634Z,99.99
2023-05-21T04:13:22.606Z,99.99
2023-05-21T04:14:22.585Z,99.99
2023-05-21T04:15:22.578Z,99.99
2023-05-21T04:16:22.587Z,99.99
2023-05-21T04:17:22.701Z,99.99
2023-05-21T04:18:22.476Z,99.99
2023-05-21T04:19:22.490Z,99.99
2023-05-21T04:20:22.421Z,99.99
2023-05-21T04:21:22.399Z,99.99
2023-05-21T04:22:22.366Z,99.99
2023-05-21T04:23:22.342Z,99.99
2023-05-21T04:24:22.311Z,99.99
2023-05-21T04:25:22.301Z,99.99
2023-05-21T04:26:22.258Z,99.99
2023-05-21T04:27:22.234Z,99.99
2023-05-21T04:28:22.207Z,99.99
2023-05-21T04:29:22.182Z,99.99
2023-05-21T04:30:22.153Z,99.99
2023-05-21T04:31:22.230Z,99.99
2023-05-21T04:32:22.132Z,99.99
2023-05-21T04:33:22.076Z,99.99
2023-05-21T04:34:22.046Z,99.99
2023-05-21T04:35:22.028Z,99.99
2023-05-21T04:36:21.998Z,99.99
2023-05-21T04:37:21.968Z,99.99
2023-05-21T04:38:21.960Z,99.99
2023-05-21T04:39:21.921Z,99.99
2023-05-21T04:40:21.890Z,99.99
2023-05-21T04:41:21.862Z,99.99
2023-05-21T04:42:21.846Z,99.99
2023-05-21T04:43:21.812Z,99.99
2023-05-21T04:44:21.781Z,99.99
2023-05-21T04:45:21.759Z,99.99
2023-05-21T04:46:21.766Z,99.99
2023-05-21T04:47:21.756Z,99.99
2023-05-21T04:48:21.677Z,99.99
2023-05-21T04:49:21.653Z,99.99
2023-05-21T04:50:21.620Z,99.99
2023-05-21T04:51:21.602Z,99.99
2023-05-21T04:52:21.570Z,99.99
2023-05-21T04:53:21.557Z,99.99
2023-05-21T04:54:21.541Z,99.99
2023-05-21T04:55:21.493Z,99.99
2023-05-21T04:56:21.467Z,99.99
2023-05-21T04:57:21.444Z,99.99
2023-05-21T04:58:21.413Z,99.99
2023-05-21T04:59:21.407Z,99.99
2023-05-21T05:00:21.363Z,99.99
2023-05-21T05:01:21.397Z,99.99
2023-05-21T05:02:21.361Z,99.99
2023-05-21T05:03:21.382Z,99.99
2023-05-21T05:04:21.259Z,99.99
2023-05-21T05:05:21.237Z,99.99
2023-05-21T05:06:21.205Z,99.99
2023-05-21T05:07:21.200Z,99.99
2023-05-21T05:08:21.152Z,99.99
2023-05-21T05:09:21.128Z,99.99
2023-05-21T05:10:21.097Z,99.99
2023-05-21T05:11:21.075Z,99.99
2023-05-21T05:12:21.047Z,99.99
2023-05-21T05:13:21.028Z,99.99
2023-05-21T05:14:20.995Z,99.99
2023-05-21T05:15:20.989Z,99.99
2023-05-21T05:16:20.983Z,99.99
2023-05-21T05:17:20.918Z,99.99
2023-05-21T05:18:20.913Z,99.99
2023-05-21T05:19:20.941Z,99.99
2023-05-21T05:20:20.842Z,99.99
2023-05-21T05:21:20.813Z,99.99
2023-05-21T05:22:20.798Z,99.99
2023-05-21T05:23:20.761Z,99.99
2023-05-21T05:24:20.737Z,99.99
2023-05-21T05:25:20.711Z,99.99
2023-05-21T05:26:20.683Z,99.99
2023-05-21T05:27:20.661Z,99.99
2023-05-21T05:28:20.648Z,99.99
2023-05-21T05:29:20.612Z,99.99
2023-05-21T05:30:20.597Z,99.99
2023-05-21T05:31:20.578Z,99.99
2023-05-21T05:32:20.560Z,99.99
2023-05-21T05:33:20.505Z,99.99
2023-05-21T05:34:20.480Z,99.99
2023-05-21T05:35:20.476Z,99.99
2023-05-21T05:36:20.423Z,99.99
2023-05-21T05:37:20.405Z,99.99
2023-05-21T05:38:20.374Z,99.99
2023-05-21T05:39:20.353Z,99.99
2023-05-21T05:40:20.332Z,99.99
2023-05-21T05:41:20.303Z,99.99
2023-05-21T05:42:20.282Z,99.99
2023-05-21T05:43:20.245Z,99.99
2023-05-21T05:44:20.218Z,99.99
2023-05-21T05:45:20.192Z,99.99
2023-05-21T05:46:20.204Z,99.99
2023-05-21T05:47:20.146Z,99.99
2023-05-21T05:48:20.122Z,99.99
2023-05-21T05:49:20.087Z,99.99
2023-05-21T05:50:20.062Z,99.99
2023-05-21T05:51:20.059Z,99.99
2023-05-21T05:52:20.011Z,99.99
2023-05-21T05:53:19.989Z,99.99
2023-05-21T05:54:19.960Z,99.99
2023-05-21T05:55:19.966Z,99.99
2023-05-21T05:56:19.913Z,99.99
2023-05-21T05:57:19.885Z,99.99
2023-05-21T05:58:19.858Z,99.99
2023-05-21T05:59:19.842Z,99.99
2023-05-21T06:00:19.821Z,99.99
2023-05-21T06:01:19.781Z,99.99
2023-05-21T06:02:19.847Z,99.99
2023-05-21T06:03:19.894Z,99.99
2023-05-21T06:04:19.699Z,99.99
2023-05-21T06:05:19.688Z,99.99
2023-05-21T06:06:19.738Z,99.99
2023-05-21T06:07:19.666Z,99.99
2023-05-21T06:08:19.599Z,99.99
2023-05-21T06:09:19.576Z,99.99
2023-05-21T06:10:19.549Z,99.99
2023-05-21T06:11:19.521Z,99.99
2023-05-21T06:12:19.504Z,99.99
2023-05-21T06:13:19.479Z,99.99
2023-05-21T06:14:19.441Z,99.99
2023-05-21T06:15:19.415Z,99.99
2023-05-21T06:16:19.430Z,99.99
2023-05-21T06:17:19.365Z,99.99
2023-05-21T06:18:19.338Z,99.99
2023-05-21T06:19:19.356Z,99.99
2023-05-21T06:20:19.284Z,99.99
2023-05-21T06:21:19.263Z,99.99
2023-05-21T06:22:19.236Z,99.99
2023-05-21T06:23:19.264Z,99.99
2023-05-21T06:24:19.185Z,99.99
2023-05-21T06:25:19.160Z,99.99
2023-05-21T06:26:19.131Z,99.99
2023-05-21T06:27:19.120Z,99.99
2023-05-21T06:28:19.087Z,99.99
2023-05-21T06:29:19.088Z,99.44
2023-05-21T06:30:19.030Z,99.99
2023-05-21T06:31:19.021Z,99.04
2023-05-21T06:32:19.005Z,99.54
2023-05-21T06:33:19.166Z,99.74
2023-05-21T06:34:18.929Z,99.99
2023-05-21T06:35:18.906Z,99.99
2023-05-21T06:36:18.880Z,99.04
2023-05-21T06:37:18.865Z,99.99
2023-05-21T06:38:18.828Z,99.99
2023-05-21T06:39:18.823Z,99.58
2023-05-21T06:40:18.778Z,99.99
2023-05-21T06:41:18.759Z,99.99
2023-05-21T06:42:18.733Z,99.99
2023-05-21T06:43:18.703Z,99.99
2023-05-21T06:44:18.675Z,99.99
2023-05-21T06:45:18.652Z,99.99
2023-05-21T06:46:18.739Z,99.99
2023-05-21T06:47:18.610Z,99.69
2023-05-21T06:48:18.582Z,99.99
2023-05-21T06:49:18.567Z,99.99
2023-05-21T06:50:18.524Z,99.99
2023-05-21T06:51:18.512Z,99.99
2023-05-21T06:52:18.471Z,99.04
2023-05-21T06:53:18.462Z,99.29
2023-05-21T06:54:18.424Z,98.48
2023-05-21T06:55:18.429Z,98.88
2023-05-21T06:56:18.381Z,98.33
2023-05-21T06:57:18.364Z,98.74
2023-05-21T06:58:18.327Z,96.30
2023-05-21T06:59:18.299Z,97.83
2023-05-21T07:00:18.280Z,97.02
2023-05-21T07:01:18.375Z,97.02
2023-05-21T07:02:18.275Z,98.39
2023-05-21T07:03:18.288Z,96.36
2023-05-21T07:04:18.176Z,96.15
2023-05-21T07:05:18.239Z,96.10
2023-05-21T07:06:18.122Z,97.36
2023-05-21T07:07:18.096Z,98.94
2023-05-21T07:08:18.075Z,98.07
2023-05-21T07:09:18.058Z,97.97
2023-05-21T07:10:18.023Z,98.84
2023-05-21T07:11:18.039Z,97.77
2023-05-21T07:12:17.968Z,97.97
2023-05-21T07:13:17.948Z,98.68
2023-05-21T07:14:17.921Z,98.28
2023-05-21T07:15:17.902Z,98.99
2023-05-21T07:16:18.155Z,97.87
2023-05-21T07:17:17.850Z,98.13
2023-05-21T07:18:17.831Z,96.91
2023-05-21T07:19:17.836Z,96.81
2023-05-21T07:20:17.773Z,97.98
2023-05-21T07:21:17.750Z,96.66
2023-05-21T07:22:17.734Z,96.77
2023-05-21T07:23:17.700Z,96.87
2023-05-21T07:24:17.674Z,96.66
2023-05-21T07:25:17.648Z,97.07
2023-05-21T07:26:17.630Z,96.01
2023-05-21T07:27:25.379Z,96.22
2023-05-21T07:28:17.579Z,96.22
2023-05-21T07:29:17.550Z,96.11
2023-05-21T07:30:17.527Z,96.01
2023-05-21T07:31:17.521Z,95.76
2023-05-21T07:32:17.472Z,95.15
2023-05-21T07:33:17.456Z,95.56
2023-05-21T07:34:17.436Z,95.56
2023-05-21T07:35:17.402Z,96.27
2023-05-21T07:36:17.374Z,95.15
2023-05-21T07:37:17.350Z,95.21
2023-05-21T07:38:17.324Z,95.46
2023-05-21T07:39:17.302Z,94.55
2023-05-21T07:40:17.277Z,95.66
2023-05-21T07:41:18.684Z,95.26
2023-05-21T07:42:17.227Z,96.07
2023-05-21T07:43:17.230Z,95.97
2023-05-21T07:44:17.179Z,95.61
2023-05-21T07:45:17.157Z,96.31
2023-05-21T07:46:17.157Z,96.46
2023-05-21T07:47:17.105Z,96.22
2023-05-21T07:48:17.081Z,96.72
2023-05-21T07:49:17.211Z,95.81
2023-05-21T07:50:17.031Z,96.31
2023-05-21T07:51:17.004Z,96.31
2023-05-21T07:52:16.989Z,96.31
2023-05-21T07:53:16.958Z,96.88
2023-05-21T07:54:16.948Z,96.07
2023-05-21T07:55:16.932Z,95.76
2023-05-21T07:56:16.897Z,96.17
2023-05-21T07:57:16.866Z,95.76
2023-05-21T07:58:16.848Z,95.92
2023-05-21T07:59:16.912Z,96.22
2023-05-21T08:00:16.798Z,96.22
2023-05-21T08:01:16.763Z,95.21
2023-05-21T08:02:16.756Z,95.01
2023-05-21T08:03:16.750Z,95.11
2023-05-21T08:04:16.844Z,95.31
2023-05-21T08:05:16.814Z,95.17
2023-05-21T08:06:16.639Z,94.66
2023-05-21T08:07:16.615Z,94.15
2023-05-21T08:08:16.590Z,94.36
2023-05-21T08:09:16.568Z,93.65
2023-05-21T08:10:19.155Z,94.56
2023-05-21T08:11:16.515Z,94.15
2023-05-21T08:12:16.499Z,94.56
2023-05-21T08:13:16.479Z,94.36
2023-05-21T08:14:16.453Z,93.91
2023-05-21T08:15:16.446Z,92.80
2023-05-21T08:16:16.408Z,92.60
2023-05-21T08:17:16.364Z,93.20
2023-05-21T08:18:16.344Z,92.90
2023-05-21T08:19:16.389Z,93.40
2023-05-21T08:20:16.306Z,93.40
2023-05-21T08:21:16.269Z,92.85
2023-05-21T08:22:16.248Z,93.36
2023-05-21T08:23:16.233Z,92.30
2023-05-21T08:24:16.207Z,92.10
2023-05-21T08:25:16.186Z,91.30
2023-05-21T08:26:16.150Z,91.30
2023-05-21T08:27:16.122Z,91.60
2023-05-21T08:28:16.111Z,92.41
2023-05-21T08:29:16.075Z,91.25
2023-05-21T08:30:16.052Z,89.29
2023-05-21T08:31:16.090Z,88.23
2023-05-21T08:32:16.301Z,89.84
2023-05-21T08:33:15.983Z,90.34
2023-05-21T08:34:15.954Z,90.20
2023-05-21T08:35:15.933Z,90.70
2023-05-21T08:36:15.906Z,90.06
2023-05-21T08:37:15.888Z,90.36
2023-05-21T08:38:15.857Z,88.10
2023-05-21T08:39:15.845Z,88.20
2023-05-21T08:40:15.815Z,88.70
2023-05-21T08:41:15.785Z,89.12
2023-05-21T08:42:22.541Z,88.42
2023-05-21T08:43:15.735Z,87.01
2023-05-21T08:44:15.714Z,88.12
2023-05-21T08:45:15.690Z,88.02
2023-05-21T08:46:15.678Z,85.94
2023-05-21T08:47:15.672Z,85.94
2023-05-21T08:48:15.625Z,85.34
2023-05-21T08:49:15.594Z,86.35
2023-05-21T08:50:15.578Z,85.84
2023-05-21T08:51:15.543Z,85.80
2023-05-21T08:52:15.538Z,86.30
2023-05-21T08:53:26.687Z,85.86
2023-05-21T08:54:15.474Z,85.16
2023-05-21T08:55:15.493Z,84.05
2023-05-21T08:56:15.448Z,84.35
2023-05-21T08:57:15.413Z,83.31
2023-05-21T08:58:15.393Z,85.11
2023-05-21T08:59:15.368Z,84.27
2023-05-21T09:00:15.334Z,84.03
2023-05-21T09:01:15.332Z,84.03
2023-05-21T09:02:15.298Z,83.33
2023-05-21T09:03:15.342Z,82.52
2023-05-21T09:04:20.708Z,81.98
2023-05-21T09:05:15.236Z,81.38
2023-05-21T09:06:15.195Z,81.07
2023-05-21T09:07:15.171Z,81.68
2023-05-21T09:08:15.148Z,80.17
2023-05-21T09:09:15.123Z,82.48
2023-05-21T09:10:15.110Z,81.34
2023-05-21T09:11:15.083Z,81.04
2023-05-21T09:12:15.056Z,79.83
2023-05-21T09:13:15.032Z,79.73
2023-05-21T09:14:15.009Z,78.93
2023-05-21T09:15:14.987Z,79.47
2023-05-21T09:16:14.996Z,79.57
2023-05-21T09:17:14.954Z,79.71
2023-05-21T09:18:14.950Z,79.71
2023-05-21T09:19:14.955Z,79.71
2023-05-21T09:20:15.013Z,78.90
2023-05-21T09:21:14.849Z,79.21
2023-05-21T09:22:14.825Z,78.90
2023-05-21T09:23:14.802Z,77.70
2023-05-21T09:24:14.781Z,78.10
2023-05-21T09:25:14.760Z,77.00
2023-05-21T09:26:14.738Z,79.27
2023-05-21T09:27:14.708Z,78.70
2023-05-21T09:28:14.692Z,79.67
2023-05-21T09:29:14.672Z,78.46
2023-05-21T09:30:14.656Z,77.86
2023-05-21T09:31:14.672Z,79.27
2023-05-21T09:32:14.597Z,77.86
2023-05-21T09:33:14.609Z,76.89
2023-05-21T09:34:14.551Z,77.70
2023-05-21T09:35:14.759Z,80.11
2023-05-21T09:36:14.520Z,79.71
2023-05-21T09:37:26.571Z,79.27
2023-05-21T09:38:14.460Z,78.56
2023-05-21T09:39:14.434Z,77.66
2023-05-21T09:40:14.413Z,77.29
2023-05-21T09:41:14.983Z,77.90
2023-05-21T09:42:14.367Z,80.07
2023-05-21T09:43:14.344Z,80.13
2023-05-21T09:44:14.326Z,78.42
2023-05-21T09:45:14.312Z,76.62
2023-05-21T09:46:14.314Z,76.45
2023-05-21T09:47:14.251Z,78.27
2023-05-21T09:48:14.233Z,78.36
2023-05-21T09:49:14.210Z,78.86
2023-05-21T09:50:14.206Z,77.52
2023-05-21T09:51:14.182Z,78.22
2023-05-21T09:52:14.146Z,78.03
2023-05-21T09:53:14.115Z,77.32
2023-05-21T09:54:14.096Z,78.19
2023-05-21T09:55:14.073Z,78.89
2023-05-21T09:56:14.051Z,78.15
2023-05-21T09:57:14.027Z,76.65
2023-05-21T09:58:14.004Z,75.84
2023-05-21T09:59:13.983Z,74.84
2023-05-21T10:00:13.960Z,74.74
2023-05-21T10:01:13.950Z,75.68
2023-05-21T10:02:14.007Z,75.01
2023-05-21T10:03:13.933Z,76.42
2023-05-21T10:04:13.887Z,76.42
2023-05-21T10:05:13.848Z,75.78
2023-05-21T10:06:13.822Z,75.14
2023-05-21T10:07:13.821Z,74.94
2023-05-21T10:08:13.789Z,74.80
2023-05-21T10:09:13.759Z,76.31
2023-05-21T10:10:13.737Z,74.71
2023-05-21T10:11:13.710Z,74.14
2023-05-21T10:12:13.692Z,74.40
2023-05-21T10:13:13.671Z,74.88
2023-05-21T10:14:13.647Z,75.48
2023-05-21T10:15:13.631Z,75.48
2023-05-21T10:16:13.627Z,75.14
2023-05-21T10:17:13.579Z,77.85
2023-05-21T10:18:13.587Z,75.74
2023-05-21T10:19:13.559Z,75.91
2023-05-21T10:20:13.528Z,75.21
2023-05-21T10:21:13.490Z,71.77
2023-05-21T10:22:13.471Z,71.86
2023-05-21T10:23:13.473Z,71.23
2023-05-21T10:24:13.424Z,71.12
2023-05-21T10:25:13.408Z,72.73
2023-05-21T10:26:13.377Z,73.30
2023-05-21T10:27:13.353Z,72.56
2023-05-21T10:28:13.333Z,70.76
2023-05-21T10:29:13.311Z,72.96
2023-05-21T10:30:13.285Z,71.36
2023-05-21T10:31:13.263Z,70.26
2023-05-21T10:32:13.299Z,69.36
2023-05-21T10:33:13.288Z,69.86
2023-05-21T10:34:13.201Z,69.49
2023-05-21T10:35:13.176Z,72.23
2023-05-21T10:36:13.156Z,71.89
2023-05-21T10:37:13.138Z,71.80
2023-05-21T10:38:13.111Z,71.56
2023-05-21T10:39:13.123Z,69.66
2023-05-21T10:40:13.069Z,69.46
2023-05-21T10:41:13.047Z,68.55
2023-05-21T10:42:13.032Z,68.36
2023-05-21T10:43:12.999Z,70.43
2023-05-21T10:44:12.980Z,71.29
2023-05-21T10:45:12.968Z,69.59
2023-05-21T10:46:13.029Z,68.96
2023-05-21T10:47:12.923Z,69.66
2023-05-21T10:48:12.900Z,67.69
2023-05-21T10:49:12.880Z,67.09
2023-05-21T10:50:12.864Z,68.19
2023-05-21T10:51:12.826Z,69.16
2023-05-21T10:52:12.811Z,68.56
2023-05-21T10:53:12.787Z,69.16
2023-05-21T10:54:12.781Z,67.16
2023-05-21T10:55:12.762Z,66.99
2023-05-21T10:56:12.718Z,68.69
2023-05-21T10:57:12.714Z,69.89
2023-05-21T10:58:12.678Z,66.89
2023-05-21T10:59:12.657Z,66.89
2023-05-21T11:00:12.640Z,67.16
2023-05-21T11:01:12.624Z,66.46
2023-05-21T11:02:12.661Z,64.79
2023-05-21T11:03:12.681Z,64.49
2023-05-21T11:04:12.551Z,66.46
2023-05-21T11:05:12.530Z,66.26
2023-05-21T11:06:12.508Z,66.86
2023-05-21T11:07:12.491Z,64.93
2023-05-21T11:08:12.472Z,63.43
2023-05-21T11:09:12.445Z,63.56
2023-05-21T11:10:12.435Z,65.13
2023-05-21T11:11:12.421Z,64.43
2023-05-21T11:12:12.413Z,65.13
2023-05-21T11:13:12.361Z,64.73
2023-05-21T11:14:12.343Z,65.23
2023-05-21T11:15:12.324Z,65.63
2023-05-21T11:16:12.295Z,66.33
2023-05-21T11:17:12.312Z,62.43
2023-05-21T11:18:12.340Z,65.13
2023-05-21T11:19:12.260Z,66.00
2023-05-21T11:20:12.214Z,64.00
2023-05-21T11:21:12.192Z,62.34
2023-05-21T11:22:12.177Z,63.63
2023-05-21T11:23:12.148Z,64.50
2023-05-21T11:24:12.150Z,65.56
2023-05-21T11:25:12.109Z,65.14
2023-05-21T11:26:12.112Z,64.54
2023-05-21T11:27:12.090Z,64.77
2023-05-21T11:28:12.048Z,66.27
2023-05-21T11:29:12.030Z,66.56
2023-05-21T11:30:12.014Z,64.44
2023-05-21T11:31:12.016Z,63.64
2023-05-21T11:32:11.962Z,62.74
2023-05-21T11:33:11.992Z,62.74
2023-05-21T11:34:11.929Z,62.84
2023-05-21T11:35:11.903Z,62.34
2023-05-21T11:36:11.893Z,60.75
2023-05-21T11:37:11.860Z,61.41
2023-05-21T11:38:11.840Z,63.91
2023-05-21T11:39:11.843Z,63.41
2023-05-21T11:40:11.796Z,61.99
2023-05-21T11:41:11.780Z,58.59
2023-05-21T11:42:11.758Z,60.42
2023-05-21T11:43:11.756Z,60.52
2023-05-21T11:44:11.718Z,60.62
2023-05-21T11:45:11.695Z,62.81
2023-05-21T11:46:11.693Z,63.18
2023-05-21T11:47:11.654Z,60.69
2023-05-21T11:48:11.688Z,59.69
2023-05-21T11:49:11.614Z,60.19
2023-05-21T11:50:11.596Z,62.78
2023-05-21T11:51:11.573Z,61.22
2023-05-21T11:52:11.558Z,63.44
2023-05-21T11:53:11.530Z,62.91
2023-05-21T11:54:11.522Z,60.32
2023-05-21T11:55:11.527Z,59.72
2023-05-21T11:56:11.486Z,60.25
2023-05-21T11:57:11.458Z,60.97
2023-05-21T11:58:11.433Z,62.54
2023-05-21T11:59:11.434Z,60.15
2023-05-21T12:00:11.394Z,58.55
2023-05-21T12:01:11.372Z,58.83
2023-05-21T12:02:11.357Z,60.55
2023-05-21T12:03:11.411Z,59.82
2023-05-21T12:04:11.339Z,60.05
2023-05-21T12:05:13.225Z,58.25
2023-05-21T12:06:11.327Z,58.48
2023-05-21T12:07:11.253Z,57.09
2023-05-21T12:08:11.235Z,59.08
2023-05-21T12:09:11.231Z,58.75
2023-05-21T12:10:11.195Z,59.69
2023-05-21T12:11:11.174Z,60.99
2023-05-21T12:12:11.151Z,60.43
2023-05-21T12:13:11.134Z,58.41
2023-05-21T12:14:11.138Z,58.61
2023-05-21T12:15:11.121Z,56.37
2023-05-21T12:16:11.096Z,57.14
2023-05-21T12:17:11.052Z,55.85
2023-05-21T12:18:11.042Z,58.13
2023-05-21T12:19:11.055Z,52.84
2023-05-21T12:20:10.998Z,55.85
2023-05-21T12:21:12.503Z,58.53
2023-05-21T12:22:10.959Z,55.65
2023-05-21T12:23:10.932Z,57.43
2023-05-21T12:24:10.913Z,56.57
2023-05-21T12:25:10.909Z,56.47
2023-05-21T12:26:10.872Z,54.18
2023-05-21T12:27:10.860Z,54.28
2023-05-21T12:28:10.834Z,56.44
2023-05-21T12:29:10.816Z,53.86
2023-05-21T12:30:10.812Z,53.86
2023-05-21T12:31:10.799Z,54.43
2023-05-21T12:32:10.934Z,57.87
2023-05-21T12:33:10.768Z,57.98
2023-05-21T12:34:10.716Z,57.98
2023-05-21T12:35:10.724Z,56.09
2023-05-21T12:36:10.679Z,55.10
2023-05-21T12:37:10.660Z,54.08
2023-05-21T12:38:10.641Z,54.28
2023-05-21T12:39:11.407Z,54.87
2023-05-21T12:40:10.612Z,56.88
2023-05-21T12:41:10.585Z,55.17
2023-05-21T12:42:10.565Z,55.96
2023-05-21T12:43:10.553Z,53.19
2023-05-21T12:44:10.528Z,54.10
2023-05-21T12:45:10.506Z,54.10
2023-05-21T12:46:10.538Z,55.19
2023-05-21T12:47:10.492Z,55.00
2023-05-21T12:48:10.498Z,54.21
2023-05-21T12:49:10.434Z,54.50
2023-05-21T12:50:10.550Z,53.86
2023-05-21T12:51:10.397Z,55.50
2023-05-21T12:52:10.389Z,57.39